PDT,Max TemperatureF,Mean TemperatureF,Min TemperatureF,Max Dew PointF,MeanDew PointF,Min DewpointF,Max Humidity, Mean Humidity, Min Humidity, Max Sea Level PressureIn, Mean Sea Level PressureIn, Min Sea Level PressureIn, Max VisibilityMiles, Mean VisibilityMiles, Min VisibilityMiles, Max Wind SpeedMPH, Mean Wind SpeedMPH, Max Gust SpeedMPH,PrecipitationIn, CloudCover, Events, WindDirDegrees
2013-4-1,80,59,38,46,37,32,76,49,21,30.01,29.96,29.91,10,10,10,17,6,23,0.00,0,,279
2013-4-2,74,56,37,41,38,32,82,56,29,30.09,30.06,30.01,10,10,10,17,5,21,0.00,1,,273
2013-4-3,72,54,35,40,36,31,82,54,25,30.12,30.05,29.96,10,10,10,10,4,15,0.00,0,,251
2013-4-4,60,56,51,50,45,39,77,66,55,29.94,29.80,29.70,10,10,7,20,6,30,0.10,5,Rain,234
2013-4-5,68,60,52,43,41,38,66,51,35,29.85,29.81,29.77,10,10,10,25,15,35,0.00,4,,201
2013-4-6,64,54,44,40,34,27,66,46,25,29.87,29.83,29.78,10,10,10,26,11,35,T,6,,225
2013-4-7,61,51,41,42,35,29,89,61,33,29.80,29.64,29.52,10,9,5,28,9,37,0.27,6,Rain,276
2013-4-8,59,46,33,41,35,28,70,54,37,30.22,30.03,29.82,10,10,10,15,4,17,0.03,5,Rain,246
2013-4-9,64,47,30,38,34,27,82,58,34,30.32,30.26,30.17,10,10,10,10,5,14,0.00,3,,210
2013-4-10,68,55,42,43,36,28,76,53,29,30.17,30.02,29.89,10,10,10,41,13,52,0.00,2,,275
2013-4-11,65,49,33,31,28,25,69,48,26,30.19,30.15,30.10,10,10,10,18,7,25,0.00,0,,300
2013-4-12,58,44,30,37,30,24,78,57,35,30.13,29.90,29.64,10,10,10,13,4,16,T,3,Rain,247
2013-4-13,59,46,32,31,25,20,76,52,27,29.93,29.82,29.65,10,10,10,35,16,45,0.00,1,,289
2013-4-14,58,41,24,32,26,19,81,55,28,29.98,29.92,29.88,10,10,10,21,6,26,T,2,Rain,282
2013-4-15,57,43,29,34,28,22,78,52,26,30.14,30.01,29.91,10,10,10,17,8,22,0.00,6,,324
2013-4-16,58,44,29,30,21,13,78,49,19,30.40,30.29,30.16,10,10,10,18,7,25,0.00,5,,341
2013-4-17,62,44,25,32,24,19,75,49,23,30.47,30.40,30.34,10,10,10,18,6,22,0.00,2,,277
2013-4-18,69,55,40,39,35,30,70,51,32,30.36,30.29,30.18,10,10,10,14,4,16,T,4,,278
2013-4-19,69,57,45,42,38,35,76,54,32,30.17,30.04,29.97,10,10,10,30,9,36,T,4,,280
2013-4-20,68,54,39,38,34,31,76,53,29,30.17,30.13,30.10,10,10,10,23,9,26,0.00,2,,286
2013-4-21,67,51,35,35,31,28,82,53,24,30.29,30.15,30.04,10,10,10,26,8,43,0.00,1,,315
2013-4-22,63,46,28,29,22,14,75,46,16,30.50,30.43,30.33,10,10,10,15,5,22,0.00,0,,270
2013-4-23,68,47,26,29,25,20,78,48,18,30.42,30.29,30.21,10,10,9,16,5,64,0.00,1,,304
2013-4-24,73,52,31,31,28,24,75,48,20,30.34,30.18,29.97,10,10,10,18,6,24,0.00,0,,240
2013-4-25,83,66,49,37,34,26,50,35,20,30.07,29.97,29.93,10,10,10,24,8,30,0.00,0,,308
2013-4-26,86,63,40,41,35,25,76,46,15,30.16,30.12,30.07,10,10,10,16,4,22,0.00,0,,278
2013-4-27,79,65,50,39,34,26,61,39,16,30.13,30.09,30.04,10,10,10,28,8,36,0.00,1,,268
2013-4-28,71,54,37,39,34,29,79,51,23,30.12,30.05,29.90,10,10,10,28,9,33,0.00,2,,295
2013-4-29,60,50,40,34,26,20,65,44,22,30.06,29.95,29.84,10,10,2,35,16,44,0.00,0,,281
2013-4-30,61,44,27,27,18,9,69,41,12,30.39,30.22,30.08,10,10,10,22,9,28,0.00,1,,302